createdAt,value
2023-12-30T00:01:32.941Z,83.50
2023-12-30T00:04:01.131Z,69.50
2023-12-30T00:06:29.557Z,103.25
2023-12-30T00:08:57.622Z,77.50
2023-12-30T00:11:25.703Z,76.00
2023-12-30T00:13:53.721Z,76.67
2023-12-30T00:16:21.769Z,76.50
2023-12-30T00:18:50.033Z,100.25
2023-12-30T00:21:22.131Z,78.00
2023-12-30T00:23:51.204Z,69.75
2023-12-30T00:26:23.339Z,64.50
2023-12-30T00:29:01.431Z,71.75
2023-12-30T00:31:31.054Z,71.25
2023-12-30T00:34:01.653Z,69.00
2023-12-30T00:36:30.312Z,72.00
2023-12-30T00:38:58.363Z,69.75
2023-12-30T00:41:27.916Z,91.00
2023-12-30T00:43:55.998Z,80.75
2023-12-30T00:46:24.113Z,74.25
2023-12-30T00:48:57.246Z,66.00
2023-12-30T00:51:27.462Z,69.33
2023-12-30T00:53:55.554Z,67.00
2023-12-30T00:56:23.709Z,69.25
2023-12-30T00:58:51.793Z,71.25
2023-12-30T01:01:19.910Z,72.50
2023-12-30T01:03:48.378Z,74.00
2023-12-30T01:06:16.561Z,76.25
2023-12-30T01:08:48.240Z,86.67
2023-12-30T01:11:16.393Z,73.25
2023-12-30T01:13:44.596Z,75.25
2023-12-30T01:16:12.932Z,83.00
2023-12-30T01:18:41.647Z,83.00
2023-12-30T01:21:09.796Z,75.50
2023-12-30T01:23:37.912Z,77.00
2023-12-30T01:26:06.104Z,82.00
2023-12-30T01:28:35.474Z,76.00
2023-12-30T01:31:04.299Z,72.00
2023-12-30T01:33:32.586Z,73.75
2023-12-30T01:36:01.379Z,74.00
2023-12-30T01:38:29.475Z,79.75
2023-12-30T01:40:58.223Z,75.25
2023-12-30T01:43:28.443Z,106.00
2023-12-30T01:46:04.771Z,85.00
2023-12-30T01:48:33.636Z,99.25
2023-12-30T01:51:04.080Z,110.75
2023-12-30T01:53:36.639Z,96.25
2023-12-30T01:56:05.425Z,93.67
2023-12-30T01:58:35.640Z,82.50
2023-12-30T02:01:05.183Z,95.25
2023-12-30T02:03:35.060Z,98.25
2023-12-30T02:06:03.169Z,101.75
2023-12-30T02:08:31.751Z,96.00
2023-12-30T02:11:04.274Z,85.00
2023-12-30T02:13:32.354Z,89.25
2023-12-30T02:16:00.470Z,83.25
2023-12-30T02:18:28.856Z,88.50
2023-12-30T02:20:56.982Z,90.00
2023-12-30T02:23:25.030Z,88.00
2023-12-30T02:25:53.128Z,90.50
2023-12-30T02:28:21.348Z,92.50
2023-12-30T02:30:49.527Z,92.25
2023-12-30T02:33:17.651Z,79.00
2023-12-30T02:35:45.765Z,88.25
2023-12-30T02:38:13.709Z,86.67
2023-12-30T02:40:41.761Z,88.50
2023-12-30T02:43:09.911Z,87.00
2023-12-30T02:45:38.199Z,92.00
2023-12-30T02:48:06.994Z,85.50
2023-12-30T02:50:35.107Z,89.00
2023-12-30T02:53:03.412Z,90.25
2023-12-30T02:55:31.822Z,80.00
2023-12-30T02:58:00.179Z,80.75
2023-12-30T03:00:29.032Z,85.00
2023-12-30T03:02:57.077Z,79.25
2023-12-30T03:05:25.169Z,78.00
2023-12-30T03:07:53.187Z,85.75
2023-12-30T03:10:21.460Z,83.00
2023-12-30T03:12:49.657Z,96.25
2023-12-30T03:15:17.785Z,88.00
2023-12-30T03:17:46.015Z,91.00
2023-12-30T03:20:14.350Z,81.25
2023-12-30T03:22:42.476Z,92.50
2023-12-30T03:25:10.512Z,96.00
2023-12-30T03:27:38.757Z,92.67
2023-12-30T03:30:07.864Z,81.75
2023-12-30T03:32:36.218Z,88.00
2023-12-30T03:35:04.842Z,84.75
2023-12-30T03:37:32.879Z,82.00
2023-12-30T03:40:00.944Z,90.50
2023-12-30T03:42:28.975Z,92.50
2023-12-30T03:44:58.199Z,92.75
2023-12-30T03:47:26.436Z,87.25
2023-12-30T03:49:54.531Z,90.75
2023-12-30T03:52:22.802Z,111.25
2023-12-30T03:54:53.491Z,117.33
2023-12-30T03:57:21.630Z,84.00
2023-12-30T03:59:49.675Z,88.50
2023-12-30T04:02:22.242Z,87.50
2023-12-30T04:04:51.290Z,89.00
2023-12-30T04:07:19.369Z,91.25
2023-12-30T04:09:47.732Z,85.50
2023-12-30T04:12:15.871Z,88.75
2023-12-30T04:14:45.373Z,95.50
2023-12-30T04:17:13.669Z,98.75
2023-12-30T04:19:41.934Z,86.75
2023-12-30T04:22:09.975Z,82.50
2023-12-30T04:24:38.249Z,92.00
2023-12-30T04:27:06.371Z,87.25
2023-12-30T04:29:34.392Z,99.50
2023-12-30T04:32:02.359Z,89.75
2023-12-30T04:34:30.546Z,97.75
2023-12-30T04:36:58.828Z,98.75
2023-12-30T04:39:26.853Z,113.00
2023-12-30T04:41:58.516Z,92.50
2023-12-30T04:44:26.713Z,84.50
2023-12-30T04:46:54.755Z,85.50
2023-12-30T04:49:23.108Z,92.67
2023-12-30T04:51:51.259Z,88.00
2023-12-30T04:54:19.360Z,93.67
2023-12-30T04:56:47.563Z,82.00
2023-12-30T04:59:15.603Z,91.00
2023-12-30T05:01:43.824Z,90.67
2023-12-30T05:04:12.457Z,89.75
2023-12-30T05:06:40.560Z,94.50
2023-12-30T05:09:10.075Z,94.00
2023-12-30T05:11:39.093Z,92.00
2023-12-30T05:14:07.865Z,97.33
2023-12-30T05:16:43.653Z,104.67
2023-12-30T05:19:12.509Z,105.75
2023-12-30T05:21:42.398Z,115.25
2023-12-30T05:24:11.414Z,118.00
2023-12-30T05:26:39.591Z,118.50
2023-12-30T05:29:07.686Z,103.67
2023-12-30T05:31:35.763Z,87.50
2023-12-30T05:34:05.477Z,89.25
2023-12-30T05:36:33.783Z,93.25
2023-12-30T05:39:01.863Z,115.50
2023-12-30T05:41:30.018Z,106.50
2023-12-30T05:43:57.966Z,101.50
2023-12-30T05:46:26.661Z,103.00
2023-12-30T05:48:54.938Z,92.25
2023-12-30T05:51:24.952Z,106.25
2023-12-30T05:53:53.181Z,99.50
2023-12-30T05:56:23.372Z,105.25
2023-12-30T05:58:56.419Z,107.75
2023-12-30T06:01:24.651Z,125.00
2023-12-30T06:03:53.316Z,128.25
2023-12-30T06:06:21.696Z,107.75
2023-12-30T06:08:50.296Z,116.33
2023-12-30T06:11:18.639Z,130.00
2023-12-30T06:13:47.436Z,104.75
2023-12-30T06:16:15.499Z,114.75
2023-12-30T06:18:43.675Z,124.75
2023-12-30T06:21:12.101Z,117.25
2023-12-30T06:23:40.244Z,118.25
2023-12-30T06:26:08.266Z,133.75
2023-12-30T06:28:37.357Z,137.50
2023-12-30T06:31:05.619Z,139.00
2023-12-30T06:33:33.910Z,138.25
2023-12-30T06:36:02.167Z,126.25
2023-12-30T06:38:30.149Z,126.25
2023-12-30T06:40:58.154Z,122.33
2023-12-30T06:43:26.396Z,134.50
2023-12-30T06:45:55.328Z,136.33
2023-12-30T06:48:23.460Z,124.50
2023-12-30T06:50:52.260Z,119.67
2023-12-30T06:53:20.213Z,121.00
2023-12-30T06:55:48.892Z,158.25
2023-12-30T06:58:17.150Z,126.50
2023-12-30T07:00:45.160Z,107.00
2023-12-30T07:03:14.981Z,102.50
2023-12-30T07:05:43.256Z,100.33
2023-12-30T07:08:11.331Z,115.00
2023-12-30T07:10:40.209Z,106.50
2023-12-30T07:13:08.504Z,104.50
2023-12-30T07:15:36.467Z,113.50
2023-12-30T07:18:05.358Z,105.75
2023-12-30T07:20:33.767Z,110.00
2023-12-30T07:23:03.579Z,115.75
2023-12-30T07:25:31.935Z,113.75
2023-12-30T07:28:00.068Z,110.00
2023-12-30T07:30:28.211Z,109.33
2023-12-30T07:32:56.361Z,107.75
2023-12-30T07:35:25.518Z,116.00
2023-12-30T07:37:53.798Z,123.75
2023-12-30T07:40:22.670Z,125.25
2023-12-30T07:42:51.157Z,108.50
2023-12-30T07:45:19.114Z,101.00
2023-12-30T07:47:47.607Z,92.75
2023-12-30T07:50:16.662Z,91.75
2023-12-30T07:52:44.710Z,97.75
2023-12-30T07:55:12.831Z,98.25
2023-12-30T07:57:41.176Z,105.00
2023-12-30T08:00:09.844Z,91.50
2023-12-30T08:02:42.264Z,91.50
2023-12-30T08:05:10.730Z,84.75
2023-12-30T08:07:38.814Z,90.25
2023-12-30T08:10:07.540Z,97.00
2023-12-30T08:12:37.891Z,93.25
2023-12-30T08:15:07.264Z,89.75
2023-12-30T08:17:35.388Z,117.75
2023-12-30T08:20:04.933Z,96.00
2023-12-30T08:22:33.744Z,96.75
2023-12-30T08:25:02.147Z,100.75
2023-12-30T08:27:30.211Z,97.25
2023-12-30T08:29:58.277Z,103.33
2023-12-30T08:32:26.434Z,97.75
2023-12-30T08:34:55.700Z,101.75
2023-12-30T08:37:24.937Z,109.00
2023-12-30T08:39:53.090Z,104.50
2023-12-30T08:42:23.180Z,94.25
2023-12-30T08:44:51.138Z,87.75
2023-12-30T08:47:19.355Z,138.75
2023-12-30T08:49:47.728Z,101.00
2023-12-30T08:52:15.973Z,120.50
2023-12-30T08:54:44.004Z,107.25
2023-12-30T08:57:12.029Z,103.50
2023-12-30T08:59:41.338Z,123.25
2023-12-30T09:02:09.385Z,105.25
2023-12-30T09:04:37.767Z,94.75
2023-12-30T09:07:05.810Z,91.25
2023-12-30T09:09:33.828Z,96.75
2023-12-30T09:12:01.954Z,81.00
2023-12-30T09:14:30.046Z,96.25
2023-12-30T09:16:58.373Z,87.50
2023-12-30T09:19:26.599Z,81.75
2023-12-30T09:21:54.810Z,93.33
2023-12-30T09:24:22.980Z,70.50
2023-12-30T09:26:50.991Z,69.50
2023-12-30T09:29:19.289Z,71.25
2023-12-30T09:31:47.518Z,71.33
2023-12-30T09:34:20.897Z,77.00
2023-12-30T09:36:54.801Z,76.25
2023-12-30T09:39:22.865Z,71.00
2023-12-30T09:41:51.247Z,70.50
2023-12-30T09:44:19.770Z,69.00
2023-12-30T09:46:48.791Z,56.25
2023-12-30T09:49:17.474Z,66.75
2023-12-30T09:51:45.523Z,53.75
2023-12-30T09:54:14.185Z,52.75
2023-12-30T09:56:45.169Z,58.00
2023-12-30T09:59:13.307Z,56.50
2023-12-30T10:01:42.086Z,53.00
2023-12-30T10:04:10.508Z,51.75
2023-12-30T10:06:39.615Z,57.50
2023-12-30T10:09:07.978Z,57.75
2023-12-30T10:11:36.886Z,57.75
2023-12-30T10:14:05.494Z,67.50
2023-12-30T10:16:33.689Z,56.00
2023-12-30T10:19:02.428Z,64.25
2023-12-30T10:21:31.029Z,61.67
2023-12-30T10:24:01.755Z,58.00
2023-12-30T10:26:29.859Z,58.25
2023-12-30T10:28:58.465Z,59.00
2023-12-30T10:31:26.838Z,57.67
2023-12-30T10:33:55.584Z,56.00
2023-12-30T10:36:23.902Z,51.00
2023-12-30T10:38:54.201Z,50.00
2023-12-30T10:41:22.379Z,50.25
2023-12-30T10:43:50.449Z,53.50
2023-12-30T10:46:20.634Z,50.50
2023-12-30T10:48:52.599Z,50.50
2023-12-30T10:51:31.891Z,47.00
2023-12-30T10:54:08.101Z,47.25
2023-12-30T10:56:41.230Z,46.50
2023-12-30T10:59:09.937Z,46.50
2023-12-30T11:01:38.061Z,50.50
2023-12-30T11:04:13.232Z,47.00
2023-12-30T11:06:52.939Z,45.75
2023-12-30T11:09:31.420Z,47.00
2023-12-30T11:12:03.656Z,49.00
2023-12-30T11:14:32.721Z,46.50
2023-12-30T11:17:00.806Z,45.00
2023-12-30T11:19:33.421Z,50.00
2023-12-30T11:22:06.152Z,48.00
2023-12-30T11:24:35.518Z,47.25
2023-12-30T11:27:03.933Z,51.75
2023-12-30T11:29:32.022Z,50.00
2023-12-30T11:32:00.424Z,53.00
2023-12-30T11:34:29.136Z,52.33
2023-12-30T11:36:59.949Z,52.00
2023-12-30T11:39:29.798Z,53.75
2023-12-30T11:41:59.720Z,51.25
2023-12-30T11:44:29.485Z,53.25
2023-12-30T11:46:58.883Z,52.67
2023-12-30T11:49:27.807Z,50.25
2023-12-30T11:52:04.385Z,51.00
2023-12-30T11:54:34.334Z,52.00
2023-12-30T11:57:02.740Z,51.00
2023-12-30T11:59:30.845Z,56.00
2023-12-30T12:02:15.823Z,54.33
2023-12-30T12:04:44.564Z,53.75
2023-12-30T12:07:13.725Z,47.75
2023-12-30T12:09:44.196Z,48.00
2023-12-30T12:12:15.441Z,54.75
2023-12-30T12:14:51.657Z,56.50
2023-12-30T12:17:21.283Z,51.75
2023-12-30T12:19:49.693Z,55.75
2023-12-30T12:22:17.858Z,66.75
2023-12-30T12:24:46.040Z,59.25
2023-12-30T12:27:23.238Z,58.75
2023-12-30T12:29:53.068Z,52.75
2023-12-30T12:32:22.567Z,52.00
2023-12-30T12:34:51.521Z,47.67
2023-12-30T12:37:20.641Z,49.75
2023-12-30T12:39:48.637Z,50.75
2023-12-30T12:42:26.973Z,51.00
2023-12-30T12:44:59.296Z,49.75
2023-12-30T12:47:27.646Z,50.75
2023-12-30T12:49:56.031Z,44.00
2023-12-30T12:52:24.303Z,43.00
2023-12-30T12:54:52.608Z,44.00
2023-12-30T12:57:20.834Z,45.67
2023-12-30T12:59:49.030Z,42.50
2023-12-30T13:02:17.724Z,38.00
2023-12-30T13:04:45.916Z,41.00
2023-12-30T13:07:14.504Z,37.75
2023-12-30T13:09:57.964Z,39.75
2023-12-30T13:12:26.402Z,34.00
2023-12-30T13:14:57.484Z,41.00
2023-12-30T13:17:25.838Z,41.67
2023-12-30T13:19:53.956Z,40.75
2023-12-30T13:22:23.690Z,38.50
2023-12-30T13:24:52.727Z,29.75
2023-12-30T13:27:21.543Z,38.25
2023-12-30T13:29:50.032Z,22.75
2023-12-30T13:32:17.986Z,24.33
2023-12-30T13:34:47.662Z,24.25
2023-12-30T13:37:15.866Z,31.75
2023-12-30T13:39:43.963Z,35.50
2023-12-30T13:42:15.498Z,25.00
2023-12-30T13:44:45.279Z,18.75
2023-12-30T13:47:36.417Z,18.75
2023-12-30T13:50:21.174Z,24.00
2023-12-30T13:52:51.963Z,26.00
2023-12-30T13:55:21.722Z,22.25
2023-12-30T13:57:54.125Z,23.00
2023-12-30T14:00:22.798Z,15.00
2023-12-30T14:02:54.214Z,19.75
2023-12-30T14:05:31.873Z,20.67
2023-12-30T14:08:17.717Z,12.75
2023-12-30T14:10:49.728Z,21.67
2023-12-30T14:13:20.503Z,19.25
2023-12-30T14:15:49.235Z,19.75
2023-12-30T14:18:18.392Z,21.25
2023-12-30T14:20:47.991Z,23.00
2023-12-30T14:23:16.014Z,17.75
2023-12-30T14:25:45.841Z,21.00
2023-12-30T14:28:14.701Z,33.50
2023-12-30T14:30:44.264Z,29.75
2023-12-30T14:33:12.806Z,28.50
2023-12-30T14:35:42.069Z,27.00
2023-12-30T14:38:11.324Z,23.00
2023-12-30T14:40:39.431Z,31.50
2023-12-30T14:43:07.879Z,28.00
2023-12-30T14:45:36.088Z,28.25
2023-12-30T14:48:05.397Z,39.00
2023-12-30T14:50:33.628Z,30.25
2023-12-30T14:53:01.905Z,38.75
2023-12-30T14:55:30.380Z,36.75
2023-12-30T14:57:58.548Z,36.75
2023-12-30T15:00:26.571Z,33.75
2023-12-30T15:02:56.081Z,37.00
2023-12-30T15:05:24.382Z,37.00
2023-12-30T15:07:55.881Z,36.50
2023-12-30T15:10:26.600Z,37.67
2023-12-30T15:12:54.739Z,42.00
2023-12-30T15:15:23.830Z,46.75
2023-12-30T15:17:52.388Z,50.00
2023-12-30T15:20:21.048Z,50.75
2023-12-30T15:22:49.342Z,62.00
2023-12-30T15:25:20.065Z,56.67
2023-12-30T15:27:53.754Z,52.75
2023-12-30T15:30:25.742Z,50.00
2023-12-30T15:32:56.081Z,43.67
2023-12-30T15:35:24.550Z,38.33
2023-12-30T15:37:53.360Z,44.25
2023-12-30T15:40:21.543Z,41.00
2023-12-30T15:42:49.963Z,39.00
2023-12-30T15:45:17.926Z,40.33
2023-12-30T15:47:48.651Z,40.00
2023-12-30T15:50:16.879Z,39.50
2023-12-30T15:52:45.425Z,37.00
2023-12-30T15:55:14.813Z,41.00
2023-12-30T15:57:43.360Z,38.00
2023-12-30T16:00:12.434Z,39.75
2023-12-30T16:02:40.904Z,40.00
2023-12-30T16:05:09.074Z,39.75
2023-12-30T16:07:37.510Z,40.33
2023-12-30T16:10:06.572Z,44.75
2023-12-30T16:12:35.082Z,46.50
2023-12-30T16:15:03.375Z,40.00
2023-12-30T16:17:31.753Z,45.00
2023-12-30T16:20:01.432Z,44.00
2023-12-30T16:22:29.771Z,43.67
2023-12-30T16:24:58.347Z,45.00
2023-12-30T16:27:26.619Z,59.00
2023-12-30T16:29:54.908Z,52.50
2023-12-30T16:32:22.975Z,53.00
2023-12-30T16:34:51.052Z,46.75
2023-12-30T16:37:23.791Z,48.75
2023-12-30T16:39:52.806Z,47.75
2023-12-30T16:42:22.270Z,50.75
2023-12-30T16:44:50.485Z,55.00
2023-12-30T16:47:18.621Z,61.50
2023-12-30T16:49:46.737Z,82.25
2023-12-30T16:52:14.910Z,89.00
2023-12-30T16:54:43.465Z,91.25
2023-12-30T16:57:11.713Z,77.00
2023-12-30T16:59:40.200Z,77.00
2023-12-30T17:02:08.344Z,84.75
2023-12-30T17:04:36.775Z,93.50
2023-12-30T17:07:05.071Z,77.00
2023-12-30T17:09:33.378Z,77.25
2023-12-30T17:12:01.598Z,64.25
2023-12-30T17:14:29.660Z,62.75
2023-12-30T17:16:57.853Z,64.50
2023-12-30T17:19:25.906Z,63.25
2023-12-30T17:21:53.988Z,59.75
2023-12-30T17:24:22.168Z,55.25
2023-12-30T17:26:50.277Z,53.00
2023-12-30T17:29:18.322Z,55.25
2023-12-30T17:31:46.445Z,51.50
2023-12-30T17:34:14.623Z,56.75
2023-12-30T17:36:42.635Z,54.00
2023-12-30T17:39:10.987Z,96.75
2023-12-30T17:41:38.965Z,120.50
2023-12-30T17:44:07.625Z,109.50
2023-12-30T17:46:35.789Z,108.25
2023-12-30T17:49:03.936Z,117.50
2023-12-30T17:51:32.033Z,73.50
2023-12-30T17:54:00.134Z,63.33
2023-12-30T17:56:30.194Z,59.25
2023-12-30T17:58:58.188Z,62.00
2023-12-30T18:01:26.920Z,56.75
2023-12-30T18:03:55.131Z,56.50
2023-12-30T18:06:23.613Z,58.25
2023-12-30T18:08:51.776Z,62.50
2023-12-30T18:11:20.528Z,55.25
2023-12-30T18:13:48.741Z,54.00
2023-12-30T18:16:16.946Z,57.67
2023-12-30T18:18:45.122Z,59.50
2023-12-30T18:21:13.650Z,59.50
2023-12-30T18:23:41.769Z,54.50
2023-12-30T18:26:13.770Z,56.00
2023-12-30T18:28:41.988Z,51.75
2023-12-30T18:31:10.842Z,50.75
2023-12-30T18:33:39.172Z,51.75
2023-12-30T18:36:07.790Z,52.25
2023-12-30T18:38:36.368Z,55.67
2023-12-30T18:41:04.894Z,60.50
2023-12-30T18:43:34.630Z,58.75
2023-12-30T18:46:02.967Z,57.75
2023-12-30T18:48:31.365Z,59.00
2023-12-30T18:50:59.601Z,60.00
2023-12-30T18:53:27.680Z,72.00
2023-12-30T18:55:55.882Z,64.50
2023-12-30T18:58:24.996Z,61.67
2023-12-30T19:00:53.088Z,84.00
2023-12-30T19:03:21.273Z,108.25
2023-12-30T19:05:49.519Z,101.00
2023-12-30T19:08:17.961Z,85.67
2023-12-30T19:10:46.108Z,107.50
2023-12-30T19:13:15.842Z,108.75
2023-12-30T19:15:43.912Z,93.00
2023-12-30T19:18:12.649Z,97.00
2023-12-30T19:20:41.072Z,74.75
2023-12-30T19:23:09.325Z,79.25
2023-12-30T19:25:37.379Z,65.50
2023-12-30T19:28:05.980Z,71.00
2023-12-30T19:30:34.241Z,69.67
2023-12-30T19:33:05.693Z,68.00
2023-12-30T19:35:34.894Z,69.25
2023-12-30T19:38:04.112Z,64.00
2023-12-30T19:40:32.247Z,64.00
2023-12-30T19:43:00.388Z,66.25
2023-12-30T19:45:28.673Z,65.00
2023-12-30T19:47:56.838Z,79.50
2023-12-30T19:50:24.952Z,76.00
2023-12-30T19:52:53.089Z,84.25
2023-12-30T19:55:21.448Z,84.25
2023-12-30T19:57:49.778Z,74.25
2023-12-30T20:00:18.249Z,87.75
2023-12-30T20:02:47.895Z,96.00
2023-12-30T20:05:18.900Z,92.33
2023-12-30T20:07:47.363Z,84.00
2023-12-30T20:10:15.659Z,83.25
2023-12-30T20:12:43.909Z,88.50
2023-12-30T20:15:12.128Z,81.50
2023-12-30T20:17:40.447Z,89.00
2023-12-30T20:20:09.744Z,87.00
2023-12-30T20:22:37.990Z,90.50
2023-12-30T20:25:07.246Z,80.25
2023-12-30T20:27:35.470Z,87.75
2023-12-30T20:30:06.007Z,77.75
2023-12-30T20:32:37.997Z,73.25
2023-12-30T20:35:06.520Z,74.00
2023-12-30T20:37:34.718Z,66.50
2023-12-30T20:40:04.016Z,66.00
2023-12-30T20:42:32.043Z,66.25
2023-12-30T20:45:00.180Z,75.25
2023-12-30T20:47:28.378Z,74.75
2023-12-30T20:49:56.649Z,81.00
2023-12-30T20:52:24.889Z,78.67
2023-12-30T20:54:53.014Z,86.25
2023-12-30T20:57:21.098Z,81.50
2023-12-30T20:59:49.079Z,81.25
2023-12-30T21:02:17.194Z,78.75
2023-12-30T21:04:45.309Z,85.00
2023-12-30T21:07:13.769Z,97.75
2023-12-30T21:09:41.893Z,100.00
2023-12-30T21:12:10.107Z,105.00
2023-12-30T21:14:38.210Z,119.00
2023-12-30T21:17:06.320Z,103.00
2023-12-30T21:19:35.739Z,124.25
2023-12-30T21:22:06.354Z,80.00
2023-12-30T21:24:34.748Z,79.50
2023-12-30T21:27:03.705Z,70.25
2023-12-30T21:29:31.889Z,84.75
2023-12-30T21:31:59.961Z,75.50
2023-12-30T21:34:27.985Z,79.75
2023-12-30T21:36:56.069Z,69.00
2023-12-30T21:39:24.213Z,91.25
2023-12-30T21:41:52.319Z,98.33
2023-12-30T21:44:21.332Z,117.00
2023-12-30T21:46:49.679Z,84.75
2023-12-30T21:49:19.912Z,83.00
2023-12-30T21:51:48.342Z,92.50
2023-12-30T21:54:16.648Z,82.00
2023-12-30T21:56:44.860Z,76.25
2023-12-30T21:59:12.944Z,76.00
2023-12-30T22:01:41.196Z,78.75
2023-12-30T22:04:09.520Z,74.75
2023-12-30T22:06:37.691Z,76.00
2023-12-30T22:09:06.417Z,76.25
2023-12-30T22:11:34.776Z,74.25
2023-12-30T22:14:02.816Z,78.25
2023-12-30T22:16:31.021Z,84.00
2023-12-30T22:18:59.168Z,79.75
2023-12-30T22:21:28.420Z,82.75
2023-12-30T22:23:56.479Z,87.50
2023-12-30T22:26:24.609Z,90.25
2023-12-30T22:28:52.911Z,78.33
2023-12-30T22:31:21.120Z,81.00
2023-12-30T22:33:50.227Z,81.00
2023-12-30T22:36:32.127Z,87.75
2023-12-30T22:39:00.181Z,92.25
2023-12-30T22:41:28.307Z,87.00
2023-12-30T22:43:56.374Z,82.25
2023-12-30T22:46:24.595Z,80.75
2023-12-30T22:48:52.670Z,89.25
2023-12-30T22:51:20.709Z,83.00
2023-12-30T22:53:50.160Z,79.50
2023-12-30T22:56:18.167Z,73.75
2023-12-30T22:58:46.233Z,70.25
2023-12-30T23:01:14.348Z,92.75
2023-12-30T23:03:42.449Z,91.25
2023-12-30T23:06:10.729Z,80.50
2023-12-30T23:08:38.753Z,96.33
2023-12-30T23:11:08.048Z,124.25
2023-12-30T23:13:36.078Z,87.33
2023-12-30T23:16:04.397Z,69.75
2023-12-30T23:18:32.532Z,77.00
2023-12-30T23:21:00.513Z,87.00
2023-12-30T23:23:28.620Z,70.50
2023-12-30T23:25:56.895Z,83.50
2023-12-30T23:28:24.945Z,90.50
2023-12-30T23:30:53.134Z,95.00
2023-12-30T23:33:21.217Z,84.50
2023-12-30T23:35:49.636Z,83.25
2023-12-30T23:38:17.753Z,77.00
2023-12-30T23:40:45.834Z,77.25
2023-12-30T23:43:14.020Z,72.00
2023-12-30T23:45:42.097Z,74.50
2023-12-30T23:48:10.140Z,71.50
2023-12-30T23:50:38.523Z,78.00
2023-12-30T23:53:06.873Z,70.50
2023-12-30T23:55:35.381Z,73.00
2023-12-30T23:58:03.931Z,65.25
